Time;durP1;ratioP1;P1;durP2;ratioP2;P2;SDS_P1;SDS_P2;PMS_P1;PMS_P2;Temp;Humidity;BMP_temperature;BMP_pressure;BME280_temperature;BME280_humidity;BME280_pressure;Samples;Min_cycle;Max_cycle;Signal;HPM_P1;HPM_P2
2023/12/28 00:01:39;;;;;;;4.70;2.22;;;9.20;99.90;;;;;;4973585;28;20054;-76
2023/12/28 00:04:05;;;;;;;5.63;2.78;;;9.20;99.90;;;;;;4970805;28;20030;-74
2023/12/28 00:06:32;;;;;;;3.97;2.20;;;9.30;99.90;;;;;;4969663;28;20027;-76
2023/12/28 00:09:00;;;;;;;4.03;2.05;;;9.30;99.90;;;;;;4959084;28;20038;-73
2023/12/28 00:11:26;;;;;;;4.45;2.65;;;9.30;99.90;;;;;;4972869;28;20271;-75
2023/12/28 00:13:53;;;;;;;4.07;2.83;;;9.30;99.90;;;;;;4942105;28;20035;-75
2023/12/28 00:16:19;;;;;;;4.50;2.50;;;9.30;99.90;;;;;;4950969;28;20043;-75
2023/12/28 00:18:45;;;;;;;3.78;2.60;;;9.20;99.90;;;;;;4973555;28;20029;-74
2023/12/28 00:21:12;;;;;;;3.35;1.98;;;9.20;99.90;;;;;;4962078;28;20039;-76
2023/12/28 00:23:38;;;;;;;5.00;1.95;;;9.20;99.90;;;;;;4977843;28;20031;-75
2023/12/28 00:26:05;;;;;;;4.88;3.38;;;9.20;99.90;;;;;;4953310;28;20027;-73
2023/12/28 00:28:31;;;;;;;4.85;2.42;;;9.30;99.90;;;;;;4970712;28;20030;-76
2023/12/28 00:30:57;;;;;;;5.75;2.90;;;9.30;99.90;;;;;;5100016;22;20567;-72
2023/12/28 00:33:23;;;;;;;3.30;2.55;;;9.30;99.90;;;;;;4977160;22;20420;-76
2023/12/28 00:35:50;;;;;;;4.63;2.83;;;9.30;99.90;;;;;;4947883;28;20046;-77
2023/12/28 00:38:16;;;;;;;3.15;2.83;;;9.30;99.90;;;;;;4929659;28;20043;-75
2023/12/28 00:40:42;;;;;;;5.22;2.83;;;9.30;99.90;;;;;;4954439;28;20043;-76
2023/12/28 00:43:09;;;;;;;6.05;2.47;;;9.30;99.90;;;;;;4952154;28;20034;-73
2023/12/28 00:45:35;;;;;;;4.85;2.67;;;9.40;99.90;;;;;;4948057;28;20031;-74
2023/12/28 00:48:02;;;;;;;3.75;2.63;;;9.40;99.90;;;;;;4950197;28;20399;-73
2023/12/28 00:50:31;;;;;;;4.43;2.80;;;9.40;99.90;;;;;;4955266;28;20129;-76
2023/12/28 00:53:01;;;;;;;5.47;3.10;;;9.40;99.90;;;;;;4951822;28;20536;-77
2023/12/28 00:55:28;;;;;;;4.53;2.63;;;9.40;99.90;;;;;;4957069;28;20041;-75
2023/12/28 00:57:56;;;;;;;4.40;2.75;;;9.40;99.90;;;;;;4952003;28;20389;-74
2023/12/28 01:00:22;;;;;;;5.18;2.80;;;9.40;99.90;;;;;;4936646;28;20050;-76
2023/12/28 01:02:49;;;;;;;5.03;2.85;;;9.40;99.90;;;;;;4957700;28;20038;-73
2023/12/28 01:05:16;;;;;;;5.70;2.85;;;9.40;99.90;;;;;;4952216;28;20035;-77
2023/12/28 01:07:43;;;;;;;7.65;3.38;;;9.40;99.90;;;;;;4931459;28;20490;-76
2023/12/28 01:10:09;;;;;;;4.95;3.50;;;9.40;99.90;;;;;;4929377;28;20054;-76
2023/12/28 01:12:36;;;;;;;5.80;2.70;;;9.50;99.90;;;;;;4944367;28;20030;-75
2023/12/28 01:15:02;;;;;;;5.20;3.00;;;9.50;99.90;;;;;;4944556;28;20052;-74
2023/12/28 01:17:30;;;;;;;6.90;3.42;;;9.50;99.90;;;;;;4934905;28;20571;-73
2023/12/28 01:19:56;;;;;;;3.85;2.78;;;9.50;99.90;;;;;;4952604;28;20489;-73
2023/12/28 01:22:22;;;;;;;6.10;3.72;;;9.60;99.90;;;;;;4967036;28;20034;-75
2023/12/28 01:24:49;;;;;;;4.95;2.22;;;9.60;99.90;;;;;;4932395;28;20050;-72
2023/12/28 01:27:16;;;;;;;3.58;2.58;;;9.60;99.90;;;;;;4964596;28;20039;-74
2023/12/28 01:29:42;;;;;;;5.80;3.08;;;9.60;99.90;;;;;;4954251;28;20031;-75
2023/12/28 01:32:09;;;;;;;4.30;2.90;;;9.60;99.90;;;;;;4951576;28;20035;-75
2023/12/28 01:34:37;;;;;;;6.38;3.05;;;9.50;99.90;;;;;;4932413;28;20772;-75
2023/12/28 01:37:04;;;;;;;5.50;3.08;;;9.50;99.90;;;;;;4946148;28;20035;-76
2023/12/28 01:39:32;;;;;;;5.57;3.25;;;9.50;99.90;;;;;;4941629;28;20034;-74
2023/12/28 01:41:58;;;;;;;4.43;2.97;;;9.40;99.90;;;;;;4963581;28;20038;-75
2023/12/28 01:44:25;;;;;;;4.15;2.72;;;9.40;99.90;;;;;;4949924;28;20030;-73
2023/12/28 01:46:52;;;;;;;5.35;3.17;;;9.30;99.90;;;;;;4935249;28;20777;-73
2023/12/28 01:49:18;;;;;;;6.65;3.65;;;9.30;99.90;;;;;;4945296;28;20477;-73
2023/12/28 01:51:46;;;;;;;3.92;2.60;;;9.20;99.90;;;;;;4966500;28;20417;-74
2023/12/28 01:54:12;;;;;;;4.47;3.38;;;9.20;99.90;;;;;;4947101;28;20034;-75
2023/12/28 01:56:39;;;;;;;4.55;3.20;;;9.30;99.90;;;;;;4952079;28;20043;-75
2023/12/28 01:59:05;;;;;;;5.03;3.50;;;9.30;99.90;;;;;;4951708;28;21480;-73
2023/12/28 02:01:32;;;;;;;5.53;3.15;;;9.40;99.90;;;;;;4949404;28;20031;-75
2023/12/28 02:03:58;;;;;;;6.55;3.97;;;9.40;99.90;;;;;;4948588;28;20497;-75
2023/12/28 02:06:25;;;;;;;6.57;3.00;;;9.40;99.90;;;;;;4961924;28;20484;-74
2023/12/28 02:08:52;;;;;;;6.13;3.30;;;9.40;99.90;;;;;;4945706;28;20383;-76
2023/12/28 02:11:19;;;;;;;8.23;3.13;;;9.40;99.90;;;;;;4949852;28;20517;-77
2023/12/28 02:13:46;;;;;;;5.40;3.70;;;9.40;99.90;;;;;;4951552;28;20054;-73
2023/12/28 02:16:33;;;;;;;5.75;3.35;;;9.30;99.90;;;;;;4951201;28;20042;-74
2023/12/28 02:19:17;;;;;;;5.65;3.33;;;9.30;99.90;;;;;;4931291;28;20676;-73
2023/12/28 02:21:44;;;;;;;5.68;3.55;;;9.30;99.90;;;;;;4952599;28;20038;-76
2023/12/28 02:24:11;;;;;;;6.93;4.03;;;9.30;99.90;;;;;;4967999;28;21813;-73
2023/12/28 02:26:38;;;;;;;4.07;3.20;;;9.20;99.90;;;;;;4954561;28;20031;-75
2023/12/28 02:29:04;;;;;;;7.28;3.53;;;9.20;99.90;;;;;;4955882;28;20051;-75
2023/12/28 02:31:41;;;;;;;4.70;3.00;;;9.20;99.90;;;;;;4950371;28;20039;-74
2023/12/28 02:34:15;;;;;;;6.80;3.30;;;9.10;99.90;;;;;;4952957;28;20046;-75
2023/12/28 02:36:44;;;;;;;6.65;4.07;;;9.00;99.90;;;;;;4951913;28;20418;-75
2023/12/28 02:39:14;;;;;;;6.50;3.70;;;9.00;99.90;;;;;;4949978;28;20367;-72
2023/12/28 02:41:42;;;;;;;5.70;4.10;;;9.00;99.90;;;;;;4954421;28;20393;-76
2023/12/28 02:44:10;;;;;;;6.75;3.45;;;9.00;99.90;;;;;;4957026;28;20051;-75
2023/12/28 02:46:36;;;;;;;9.13;4.03;;;9.00;99.90;;;;;;4970065;28;20045;-75
2023/12/28 02:49:04;;;;;;;6.45;3.55;;;9.00;99.90;;;;;;4966383;28;20035;-75
2023/12/28 02:51:33;;;;;;;5.35;3.00;;;9.00;99.90;;;;;;4939022;28;20504;-75
2023/12/28 02:53:59;;;;;;;8.27;2.97;;;9.00;99.90;;;;;;4935203;28;20513;-75
2023/12/28 02:56:25;;;;;;;6.05;2.85;;;8.90;99.90;;;;;;4954221;28;20162;-74
2023/12/28 02:58:51;;;;;;;10.23;3.50;;;8.90;99.90;;;;;;4953454;28;20074;-74
2023/12/28 03:01:18;;;;;;;8.40;2.90;;;8.90;99.90;;;;;;4938184;28;20034;-74
2023/12/28 03:03:44;;;;;;;8.05;3.25;;;8.90;99.90;;;;;;4952845;28;20515;-75
2023/12/28 03:06:10;;;;;;;7.57;3.03;;;8.90;99.90;;;;;;4954904;28;20039;-75
2023/12/28 03:08:37;;;;;;;5.68;2.97;;;8.90;99.90;;;;;;4939208;28;20035;-73
2023/12/28 03:11:03;;;;;;;6.07;3.20;;;9.00;99.90;;;;;;4970710;28;22672;-75
2023/12/28 03:13:31;;;;;;;9.82;2.97;;;9.00;99.90;;;;;;4942805;28;20042;-74
2023/12/28 03:15:58;;;;;;;6.90;2.72;;;9.00;99.90;;;;;;4931204;28;20035;-75
2023/12/28 03:18:24;;;;;;;12.45;3.00;;;9.00;99.90;;;;;;4955565;28;20606;-75
2023/12/28 03:20:50;;;;;;;6.65;2.55;;;9.10;99.90;;;;;;4956340;28;20290;-75
2023/12/28 03:23:17;;;;;;;8.55;2.88;;;9.00;99.90;;;;;;4952942;28;20049;-74
2023/12/28 03:25:43;;;;;;;6.85;2.83;;;9.00;99.90;;;;;;4953302;28;20537;-76
2023/12/28 03:28:09;;;;;;;7.38;3.47;;;9.00;99.90;;;;;;4956874;28;20046;-76
2023/12/28 03:30:36;;;;;;;7.72;2.63;;;9.00;99.90;;;;;;4950686;28;20764;-74
2023/12/28 03:33:03;;;;;;;10.57;2.15;;;9.00;99.90;;;;;;4970464;28;20050;-76
2023/12/28 03:35:29;;;;;;;7.50;3.05;;;9.00;99.90;;;;;;4969484;28;20038;-76
2023/12/28 03:37:55;;;;;;;8.60;2.40;;;9.00;99.90;;;;;;4935319;28;20050;-75
2023/12/28 03:40:22;;;;;;;8.15;2.40;;;9.10;99.90;;;;;;4955830;28;20042;-74
2023/12/28 03:42:48;;;;;;;8.00;2.92;;;9.10;99.90;;;;;;4950966;28;20035;-75
2023/12/28 03:45:14;;;;;;;7.30;2.65;;;9.20;99.90;;;;;;4967907;28;20027;-75
2023/12/28 03:47:41;;;;;;;5.40;2.38;;;9.30;99.90;;;;;;4950685;28;20386;-76
2023/12/28 03:50:07;;;;;;;6.25;2.33;;;9.40;99.90;;;;;;4953644;28;20046;-75
2023/12/28 03:52:34;;;;;;;9.45;2.60;;;9.40;99.90;;;;;;4972292;28;20038;-73
2023/12/28 03:55:00;;;;;;;6.97;1.67;;;9.50;99.90;;;;;;4938615;28;20058;-75
2023/12/28 03:57:27;;;;;;;6.43;2.63;;;9.50;99.90;;;;;;4953517;28;20042;-74
2023/12/28 03:59:54;;;;;;;6.57;1.92;;;9.60;99.90;;;;;;4936631;28;20027;-75
2023/12/28 04:02:21;;;;;;;8.65;2.15;;;9.60;99.90;;;;;;4955741;28;20037;-74
2023/12/28 04:04:48;;;;;;;5.50;1.77;;;9.60;99.90;;;;;;4954590;28;20052;-75
2023/12/28 04:07:16;;;;;;;8.68;2.28;;;9.60;99.90;;;;;;4969358;28;20031;-76
2023/12/28 04:09:42;;;;;;;6.70;2.75;;;9.60;99.90;;;;;;4937136;28;20046;-75
2023/12/28 04:12:08;;;;;;;4.00;1.80;;;9.60;99.90;;;;;;4934402;28;20815;-75
2023/12/28 04:14:35;;;;;;;10.55;1.75;;;9.60;99.90;;;;;;4954672;28;20043;-73
2023/12/28 04:17:02;;;;;;;6.95;2.40;;;9.60;99.90;;;;;;4938407;28;20050;-73
2023/12/28 04:19:30;;;;;;;8.65;2.03;;;9.70;99.90;;;;;;4936553;28;20027;-74
2023/12/28 04:21:56;;;;;;;7.55;1.95;;;9.70;99.90;;;;;;4969015;28;20572;-73
2023/12/28 04:24:22;;;;;;;5.80;1.98;;;9.70;99.90;;;;;;4951340;28;20046;-75
2023/12/28 04:26:49;;;;;;;8.85;1.80;;;9.70;99.90;;;;;;4948632;28;20275;-76
2023/12/28 04:29:15;;;;;;;6.65;1.63;;;9.70;99.90;;;;;;4952053;28;20032;-73
2023/12/28 04:31:42;;;;;;;7.13;1.85;;;9.70;99.90;;;;;;4950459;28;20043;-74
2023/12/28 04:34:08;;;;;;;7.82;2.15;;;9.70;99.90;;;;;;4949734;28;20568;-74
2023/12/28 04:36:45;;;;;;;9.60;2.00;;;9.80;99.90;;;;;;4955120;28;20494;-75
2023/12/28 04:39:12;;;;;;;6.15;1.63;;;9.80;99.90;;;;;;4967116;28;20038;-75
2023/12/28 04:41:38;;;;;;;4.90;1.83;;;9.70;99.90;;;;;;4940102;28;20260;-76
2023/12/28 04:44:05;;;;;;;9.32;1.83;;;9.80;99.90;;;;;;4920475;28;20490;-74
2023/12/28 04:46:31;;;;;;;10.80;1.67;;;9.70;99.90;;;;;;4954631;28;20498;-75
2023/12/28 04:48:57;;;;;;;7.28;1.65;;;9.70;99.90;;;;;;4956880;28;20043;-75
2023/12/28 04:51:24;;;;;;;6.65;2.20;;;9.70;99.90;;;;;;4939820;28;20051;-74
2023/12/28 04:53:50;;;;;;;6.72;1.63;;;9.70;99.90;;;;;;4937593;28;20042;-73
2023/12/28 04:56:19;;;;;;;10.35;1.63;;;9.70;99.90;;;;;;4922423;28;20042;-74
2023/12/28 04:58:46;;;;;;;7.88;1.83;;;9.80;99.90;;;;;;4948978;28;20031;-75
2023/12/28 05:01:12;;;;;;;7.25;1.95;;;9.80;99.90;;;;;;4939014;28;20043;-73
2023/12/28 05:03:39;;;;;;;19.30;3.70;;;9.80;99.90;;;;;;4949822;28;20038;-75
2023/12/28 05:06:05;;;;;;;10.55;1.95;;;9.90;99.90;;;;;;4935502;28;20039;-75
2023/12/28 05:08:32;;;;;;;9.00;1.77;;;9.90;99.90;;;;;;4949967;28;20038;-74
2023/12/28 05:10:58;;;;;;;5.88;1.27;;;9.90;99.90;;;;;;4968377;28;20441;-75
2023/12/28 05:13:25;;;;;;;8.98;1.85;;;9.90;99.90;;;;;;4948596;28;20039;-73
2023/12/28 05:15:51;;;;;;;12.32;1.75;;;9.90;99.90;;;;;;4953456;28;21111;-74
2023/12/28 05:18:17;;;;;;;8.10;1.60;;;10.00;99.90;;;;;;4961243;28;20046;-75
2023/12/28 05:20:43;;;;;;;10.30;2.35;;;10.00;99.90;;;;;;4948627;28;20336;-75
2023/12/28 05:23:10;;;;;;;12.43;2.30;;;10.00;99.90;;;;;;4953776;28;20034;-76
2023/12/28 05:25:36;;;;;;;10.57;1.88;;;10.00;99.90;;;;;;4955577;28;20039;-71
2023/12/28 05:28:02;;;;;;;10.82;1.83;;;10.00;99.90;;;;;;4943666;28;20035;-75
2023/12/28 05:30:29;;;;;;;12.68;1.65;;;10.00;99.90;;;;;;4952194;28;20493;-74
2023/12/28 05:32:55;;;;;;;12.25;2.40;;;10.10;99.90;;;;;;4967221;28;20031;-76
2023/12/28 05:35:21;;;;;;;14.15;2.55;;;10.10;99.90;;;;;;4937307;28;20038;-74
2023/12/28 05:37:48;;;;;;;13.30;1.88;;;10.10;99.90;;;;;;4949692;28;20504;-72
2023/12/28 05:40:14;;;;;;;11.15;1.63;;;10.10;99.90;;;;;;4935257;28;20220;-75
2023/12/28 05:42:40;;;;;;;10.68;1.73;;;10.10;99.90;;;;;;4950552;28;20035;-75
2023/12/28 05:45:07;;;;;;;11.70;1.80;;;10.10;99.90;;;;;;4967831;28;20050;-75
2023/12/28 05:47:33;;;;;;;10.25;1.67;;;10.10;99.90;;;;;;4951234;28;20031;-74
2023/12/28 05:50:00;;;;;;;11.60;1.95;;;10.10;99.90;;;;;;4937416;28;20039;-72
2023/12/28 05:52:26;;;;;;;9.90;1.50;;;10.10;99.90;;;;;;4964405;28;20046;-75
2023/12/28 05:54:52;;;;;;;8.80;1.90;;;10.10;99.90;;;;;;4940636;28;20054;-75
2023/12/28 05:57:19;;;;;;;9.77;1.52;;;10.20;99.90;;;;;;4936577;28;20030;-76
2023/12/28 05:59:45;;;;;;;16.13;2.17;;;10.20;99.90;;;;;;4965672;28;20039;-76
2023/12/28 06:02:11;;;;;;;13.10;2.42;;;10.20;99.90;;;;;;4953243;28;20038;-72
2023/12/28 06:04:38;;;;;;;13.05;2.00;;;10.20;99.90;;;;;;4970502;28;20386;-74
2023/12/28 06:07:04;;;;;;;11.60;1.80;;;10.20;99.90;;;;;;4970925;28;20043;-75
2023/12/28 06:09:31;;;;;;;12.18;1.73;;;10.20;99.90;;;;;;4953210;28;20042;-74
2023/12/28 06:11:57;;;;;;;12.82;1.55;;;10.20;99.90;;;;;;4969854;28;20042;-73
2023/12/28 06:14:24;;;;;;;9.48;1.40;;;10.20;99.90;;;;;;4950464;28;20039;-72
2023/12/28 06:16:50;;;;;;;11.52;1.70;;;10.20;99.90;;;;;;4951491;28;20854;-75
2023/12/28 06:19:17;;;;;;;10.30;2.30;;;10.30;99.90;;;;;;4952570;28;20045;-74
2023/12/28 06:21:43;;;;;;;13.25;1.77;;;10.30;99.90;;;;;;4954580;28;20037;-75
2023/12/28 06:24:09;;;;;;;8.85;1.90;;;10.20;99.90;;;;;;4949050;28;20128;-72
2023/12/28 06:26:42;;;;;;;14.30;2.03;;;10.30;99.90;;;;;;4967605;28;20050;-73
2023/12/28 06:29:09;;;;;;;8.70;1.80;;;10.30;99.90;;;;;;4954166;28;20046;-75
2023/12/28 06:31:36;;;;;;;11.55;1.77;;;10.30;99.90;;;;;;4952112;28;20035;-76
2023/12/28 06:34:06;;;;;;;15.52;1.92;;;10.30;99.90;;;;;;4950057;28;20486;-72
2023/12/28 06:36:33;;;;;;;10.90;1.85;;;10.30;99.90;;;;;;4947325;28;20130;-76
2023/12/28 06:38:59;;;;;;;11.38;1.85;;;10.30;99.90;;;;;;4936696;28;20035;-72
2023/12/28 06:41:26;;;;;;;12.10;1.70;;;10.30;99.90;;;;;;4948937;28;20489;-74
2023/12/28 06:43:53;;;;;;;12.18;2.15;;;10.30;99.90;;;;;;4952386;28;20031;-72
2023/12/28 06:46:20;;;;;;;9.55;1.45;;;10.30;99.90;;;;;;4967127;28;20594;-73
2023/12/28 06:48:46;;;;;;;16.13;1.80;;;10.30;99.90;;;;;;4952826;28;20034;-73
2023/12/28 06:51:22;;;;;;;11.90;1.77;;;10.30;99.90;;;;;;4966526;28;20902;-76
2023/12/28 06:53:48;;;;;;;14.55;2.17;;;10.30;99.90;;;;;;4951378;28;20035;-74
2023/12/28 06:56:15;;;;;;;17.13;2.28;;;10.30;99.90;;;;;;4950398;28;20042;-73
2023/12/28 06:58:41;;;;;;;18.38;2.33;;;10.30;99.90;;;;;;4969831;28;20031;-73
2023/12/28 07:01:08;;;;;;;13.18;1.45;;;10.30;99.90;;;;;;4914137;28;20034;-75
2023/12/28 07:03:34;;;;;;;12.90;2.28;;;10.30;99.90;;;;;;4955889;28;20030;-74
2023/12/28 07:06:02;;;;;;;12.55;2.15;;;10.30;99.90;;;;;;4953208;28;20035;-75
2023/12/28 07:08:28;;;;;;;17.30;2.42;;;10.40;99.90;;;;;;4934134;28;20026;-74
2023/12/28 07:10:55;;;;;;;16.13;2.40;;;10.30;99.90;;;;;;4952535;28;20035;-73
2023/12/28 07:13:21;;;;;;;16.17;1.92;;;10.40;99.90;;;;;;4952045;28;20039;-75
2023/12/28 07:15:47;;;;;;;12.32;2.22;;;10.30;99.90;;;;;;4967538;28;20393;-74
2023/12/28 07:18:14;;;;;;;19.25;2.35;;;10.40;99.90;;;;;;4953228;28;20039;-74
2023/12/28 07:20:40;;;;;;;15.57;2.50;;;10.40;99.90;;;;;;4949434;28;20552;-74
2023/12/28 07:23:06;;;;;;;21.73;2.75;;;10.40;99.90;;;;;;4952066;28;20417;-74
2023/12/28 07:25:33;;;;;;;13.30;2.15;;;10.40;99.90;;;;;;4936119;28;20051;-74
2023/12/28 07:27:59;;;;;;;16.95;2.58;;;10.40;99.90;;;;;;4953148;28;20031;-73
2023/12/28 07:30:25;;;;;;;13.52;2.00;;;10.40;99.90;;;;;;4952737;28;20031;-75
2023/12/28 07:32:52;;;;;;;18.38;2.08;;;10.40;99.90;;;;;;4932474;28;20046;-74
2023/12/28 07:35:18;;;;;;;9.45;2.10;;;10.40;99.90;;;;;;4968969;28;20527;-72
2023/12/28 07:37:45;;;;;;;14.25;1.63;;;10.30;99.90;;;;;;4953249;28;20046;-74
2023/12/28 07:40:12;;;;;;;15.43;2.25;;;10.40;99.90;;;;;;4955288;28;20038;-74
2023/12/28 07:42:39;;;;;;;14.93;1.75;;;10.40;99.90;;;;;;4966186;28;20041;-71
2023/12/28 07:45:05;;;;;;;15.88;3.05;;;10.30;99.90;;;;;;4938652;28;20042;-75
2023/12/28 07:47:33;;;;;;;17.70;2.00;;;10.40;99.90;;;;;;4952301;28;20038;-71
2023/12/28 07:50:00;;;;;;;19.08;1.95;;;10.40;99.90;;;;;;4947161;28;20050;-76
2023/12/28 07:52:27;;;;;;;17.77;2.33;;;10.30;99.90;;;;;;4939841;28;20482;-77
2023/12/28 07:54:53;;;;;;;12.85;1.67;;;10.30;99.90;;;;;;4938559;28;20409;-75
2023/12/28 07:57:19;;;;;;;11.85;1.73;;;10.40;99.90;;;;;;4964485;28;20037;-72
2023/12/28 07:59:45;;;;;;;17.38;1.63;;;10.40;99.90;;;;;;4953789;28;20322;-73
2023/12/28 08:02:12;;;;;;;13.35;1.88;;;10.40;99.90;;;;;;4951934;28;20061;-73
2023/12/28 08:04:38;;;;;;;18.67;2.30;;;10.30;99.90;;;;;;4932229;28;20039;-72
2023/12/28 08:07:04;;;;;;;14.00;1.90;;;10.40;99.90;;;;;;4966009;28;20062;-71
2023/12/28 08:09:31;;;;;;;19.27;2.08;;;10.40;99.90;;;;;;4951551;28;20312;-72
2023/12/28 08:11:57;;;;;;;15.90;1.77;;;10.40;99.90;;;;;;4949604;28;20054;-74
2023/12/28 08:14:24;;;;;;;18.17;3.03;;;10.40;99.90;;;;;;4966470;28;20039;-74
2023/12/28 08:16:50;;;;;;;13.15;2.33;;;10.40;99.90;;;;;;4932862;28;20367;-73
2023/12/28 08:19:16;;;;;;;18.92;2.80;;;10.40;99.90;;;;;;4951003;28;20050;-73
2023/12/28 08:21:43;;;;;;;25.40;3.97;;;10.50;99.90;;;;;;4949797;28;20039;-72
2023/12/28 08:24:09;;;;;;;17.85;2.67;;;10.50;99.90;;;;;;4952387;28;20039;-75
2023/12/28 08:26:35;;;;;;;17.92;2.20;;;10.50;99.90;;;;;;4967843;28;20252;-73
2023/12/28 08:29:02;;;;;;;19.30;2.38;;;10.50;99.90;;;;;;4953848;28;20042;-71
2023/12/28 08:31:29;;;;;;;13.43;2.42;;;10.60;99.90;;;;;;4920557;28;20035;-71
2023/12/28 08:33:56;;;;;;;18.67;2.05;;;10.50;99.90;;;;;;4967710;28;20406;-74
2023/12/28 08:36:22;;;;;;;18.15;2.50;;;10.60;99.90;;;;;;4940953;28;20501;-73
2023/12/28 08:38:49;;;;;;;21.48;2.65;;;10.60;99.90;;;;;;4948553;28;20401;-73
2023/12/28 08:41:23;;;;;;;16.45;1.63;;;10.60;99.90;;;;;;4936961;28;20039;-74
2023/12/28 08:43:51;;;;;;;15.40;2.05;;;10.70;99.90;;;;;;4934102;28;20038;-74
2023/12/28 08:46:19;;;;;;;12.75;2.03;;;10.60;99.90;;;;;;4953352;28;20049;-71
2023/12/28 08:48:45;;;;;;;15.25;2.83;;;10.70;99.90;;;;;;4967356;28;20035;-73
2023/12/28 08:51:11;;;;;;;19.92;3.67;;;10.70;99.90;;;;;;4949123;28;20045;-74
2023/12/28 08:53:38;;;;;;;22.35;3.17;;;10.70;99.90;;;;;;4967059;28;20727;-73
2023/12/28 08:56:21;;;;;;;14.75;2.17;;;10.70;99.90;;;;;;4932974;28;20035;-71
2023/12/28 08:58:48;;;;;;;17.15;1.67;;;10.70;99.90;;;;;;4946577;28;20699;-74
2023/12/28 09:01:21;;;;;;;13.63;2.40;;;10.70;99.90;;;;;;4952680;28;20524;-75
2023/12/28 09:03:52;;;;;;;13.85;1.60;;;10.70;99.90;;;;;;4950014;28;20050;-75
2023/12/28 09:06:22;;;;;;;13.30;2.03;;;10.70;99.90;;;;;;4937129;28;20512;-76
2023/12/28 09:08:50;;;;;;;16.48;1.92;;;10.80;99.90;;;;;;4950065;28;20422;-75
2023/12/28 09:11:18;;;;;;;20.42;2.53;;;10.70;99.90;;;;;;4951074;28;20042;-77
2023/12/28 09:13:45;;;;;;;22.55;2.00;;;10.80;99.90;;;;;;4967438;28;20038;-74
2023/12/28 09:16:14;;;;;;;18.02;2.05;;;10.70;99.90;;;;;;4966797;28;20045;-72
2023/12/28 09:18:41;;;;;;;20.08;2.30;;;10.70;99.90;;;;;;4966006;28;20262;-73
2023/12/28 09:21:09;;;;;;;15.32;2.58;;;10.70;99.90;;;;;;4940194;28;20122;-74
2023/12/28 09:23:36;;;;;;;15.98;2.75;;;10.70;99.90;;;;;;4968170;28;20473;-74
2023/12/28 09:26:03;;;;;;;19.98;2.70;;;10.80;99.90;;;;;;4951975;28;20050;-73
2023/12/28 09:28:30;;;;;;;18.63;2.67;;;10.70;99.90;;;;;;4937938;28;20035;-73
2023/12/28 09:30:57;;;;;;;16.15;2.60;;;10.70;99.90;;;;;;4967247;28;20034;-74
2023/12/28 09:33:24;;;;;;;15.10;2.38;;;10.80;99.90;;;;;;4930006;28;20051;-73
2023/12/28 09:35:50;;;;;;;16.77;2.63;;;10.80;99.90;;;;;;4936728;28;20058;-71
2023/12/28 09:38:16;;;;;;;15.70;1.75;;;10.80;99.90;;;;;;4949336;28;20572;-74
2023/12/28 09:40:43;;;;;;;17.05;2.63;;;10.90;99.90;;;;;;4950356;28;20027;-75
2023/12/28 09:43:19;;;;;;;19.55;2.58;;;10.90;99.90;;;;;;4954766;28;20501;-72
2023/12/28 09:45:49;;;;;;;19.25;2.67;;;11.00;99.90;;;;;;4945924;28;20045;-74
2023/12/28 09:48:17;;;;;;;15.52;2.75;;;11.00;99.90;;;;;;4966109;28;20038;-74
2023/12/28 09:50:51;;;;;;;18.45;2.00;;;11.10;99.90;;;;;;4956238;28;20061;-72
2023/12/28 09:53:17;;;;;;;20.35;2.83;;;11.10;99.90;;;;;;4968563;28;20035;-75
2023/12/28 09:55:45;;;;;;;16.77;2.90;;;11.10;99.90;;;;;;4950482;28;20039;-74
2023/12/28 09:58:15;;;;;;;21.80;2.33;;;11.20;99.90;;;;;;4951264;28;20061;-75
2023/12/28 10:00:44;;;;;;;16.05;3.63;;;11.20;99.90;;;;;;4944317;28;20035;-70
2023/12/28 10:03:12;;;;;;;16.95;2.85;;;11.30;99.90;;;;;;4952558;28;20353;-75
2023/12/28 10:05:40;;;;;;;20.60;4.82;;;11.30;99.90;;;;;;4954461;28;20031;-72
2023/12/28 10:08:07;;;;;;;22.02;3.75;;;11.40;99.90;;;;;;4943779;28;20485;-75
2023/12/28 10:10:33;;;;;;;22.05;3.35;;;11.40;99.90;;;;;;4967140;28;20239;-76
2023/12/28 10:13:00;;;;;;;17.25;2.35;;;11.40;99.90;;;;;;4948342;28;20059;-70
2023/12/28 10:15:26;;;;;;;17.85;2.10;;;11.40;99.90;;;;;;4968533;28;20023;-76
2023/12/28 10:17:52;;;;;;;14.50;2.53;;;11.40;99.90;;;;;;4951149;28;20039;-75
2023/12/28 10:20:19;;;;;;;17.25;2.03;;;11.30;99.90;;;;;;4963200;28;20031;-76
2023/12/28 10:22:46;;;;;;;20.65;2.95;;;11.30;99.90;;;;;;4950521;28;20028;-77
2023/12/28 10:25:12;;;;;;;13.90;2.17;;;11.30;99.90;;;;;;4936940;28;20043;-72
2023/12/28 10:27:42;;;;;;;18.80;2.92;;;11.30;99.90;;;;;;4949241;28;20067;-75
2023/12/28 10:30:12;;;;;;;14.25;2.70;;;11.30;99.90;;;;;;4929985;28;20039;-71
2023/12/28 10:32:42;;;;;;;20.58;2.45;;;11.40;99.90;;;;;;4949020;28;20069;-72
2023/12/28 10:35:08;;;;;;;16.15;3.28;;;11.40;99.90;;;;;;4948474;28;20501;-74
2023/12/28 10:37:37;;;;;;;15.82;2.67;;;11.40;99.90;;;;;;4934298;28;20603;-74
2023/12/28 10:40:07;;;;;;;14.27;2.45;;;11.50;99.90;;;;;;4948670;28;20070;-75
2023/12/28 10:42:43;;;;;;;15.73;3.28;;;11.60;99.90;;;;;;4948979;28;20638;-74
2023/12/28 10:45:10;;;;;;;17.48;2.80;;;11.60;99.90;;;;;;4947604;28;20038;-72
2023/12/28 10:47:43;;;;;;;14.68;2.17;;;11.70;99.90;;;;;;4950965;28;20390;-75
2023/12/28 10:50:11;;;;;;;;;;;11.70;99.90;;;;;;4969877;28;20046;-74
2023/12/28 10:52:43;;;;;;;16.65;2.13;;;11.80;99.90;;;;;;4952672;28;19941;-74
2023/12/28 10:55:40;;;;;;;18.15;2.63;;;11.80;99.90;;;;;;4949761;28;20743;-74
2023/12/28 10:58:19;;;;;;;18.25;2.63;;;11.80;99.90;;;;;;4958857;28;20455;-74
2023/12/28 11:00:56;;;;;;;22.92;2.63;;;11.70;99.90;;;;;;4954348;28;20054;-75
2023/12/28 11:03:31;;;;;;;16.15;1.75;;;11.70;99.90;;;;;;4940578;28;20027;-72
2023/12/28 11:05:58;;;;;;;14.48;1.90;;;11.70;99.90;;;;;;4948184;28;20509;-74
2023/12/28 11:08:24;;;;;;;17.77;2.55;;;11.70;99.90;;;;;;4972119;28;20035;-74
2023/12/28 11:10:51;;;;;;;20.23;2.80;;;11.70;99.90;;;;;;4954222;28;20474;-73
2023/12/28 11:13:21;;;;;;;15.45;1.77;;;11.80;99.90;;;;;;4949542;28;20504;-72
2023/12/28 11:15:48;;;;;;;17.17;2.38;;;11.80;99.90;;;;;;4949216;28;20042;-74
2023/12/28 11:18:15;;;;;;;15.85;2.60;;;11.80;99.90;;;;;;4965670;28;20610;-73
2023/12/28 11:20:43;;;;;;;21.42;2.60;;;11.80;99.90;;;;;;4948568;28;20493;-74
2023/12/28 11:23:11;;;;;;;18.52;2.28;;;11.70;99.90;;;;;;4956591;28;20497;-73
2023/12/28 11:25:37;;;;;;;16.73;2.55;;;11.70;99.90;;;;;;4986416;22;20429;-74
2023/12/28 11:28:11;;;;;;;20.25;2.55;;;11.70;99.90;;;;;;4946724;28;20366;-74
2023/12/28 11:30:38;;;;;;;14.68;2.72;;;11.70;99.90;;;;;;4956886;28;20026;-74
2023/12/28 11:33:05;;;;;;;19.42;3.05;;;11.70;99.90;;;;;;4957062;28;20400;-73
2023/12/28 11:35:35;;;;;;;14.65;2.50;;;11.70;99.90;;;;;;4972663;28;20040;-73
2023/12/28 11:38:08;;;;;;;19.48;2.60;;;11.70;99.90;;;;;;4993938;28;20030;-73
2023/12/28 11:40:42;;;;;;;18.70;2.40;;;11.70;99.90;;;;;;4970811;28;20038;-74
2023/12/28 11:43:18;;;;;;;17.98;2.85;;;11.70;99.90;;;;;;4980671;28;20042;-73
2023/12/28 11:45:54;;;;;;;17.90;2.38;;;11.70;99.90;;;;;;4978019;28;20354;-73
2023/12/28 11:48:26;;;;;;;22.10;4.28;;;11.70;99.90;;;;;;4960443;28;20345;-75
2023/12/28 11:50:57;;;;;;;19.20;2.30;;;11.70;99.90;;;;;;4975656;28;20041;-73
2023/12/28 11:53:24;;;;;;;19.17;2.55;;;11.70;99.90;;;;;;4992182;28;20030;-74
2023/12/28 11:55:51;;;;;;;17.35;2.70;;;11.70;99.90;;;;;;4975364;28;20038;-74
2023/12/28 11:58:20;;;;;;;14.43;2.47;;;11.70;99.90;;;;;;4973682;28;20611;-72
2023/12/28 12:00:47;;;;;;;15.18;2.95;;;11.70;99.90;;;;;;4977265;28;20026;-73
2023/12/28 12:03:14;;;;;;;20.42;2.60;;;11.60;99.90;;;;;;4957435;28;20049;-74
2023/12/28 12:05:40;;;;;;;23.20;2.55;;;11.50;99.90;;;;;;4958228;28;20567;-73
2023/12/28 12:08:10;;;;;;;15.88;2.53;;;11.50;99.90;;;;;;4974026;28;20038;-74
2023/12/28 12:10:37;;;;;;;20.33;3.55;;;11.50;99.90;;;;;;4987457;28;21596;-75
2023/12/28 12:13:03;;;;;;;22.05;2.58;;;11.40;99.90;;;;;;4972006;28;20042;-73
2023/12/28 12:15:30;;;;;;;20.50;2.40;;;11.40;99.90;;;;;;4955874;28;20055;-73
2023/12/28 12:17:57;;;;;;;22.95;3.45;;;11.40;99.90;;;;;;4972172;28;20262;-74
2023/12/28 12:20:23;;;;;;;18.10;2.35;;;11.40;99.90;;;;;;4988133;28;20041;-74
2023/12/28 12:22:50;;;;;;;16.20;2.30;;;11.40;99.90;;;;;;4972130;28;20409;-72
2023/12/28 12:25:19;;;;;;;16.35;2.40;;;11.40;99.90;;;;;;4955419;28;20049;-72
2023/12/28 12:27:46;;;;;;;15.45;2.63;;;11.40;99.90;;;;;;4956916;28;20511;-73
2023/12/28 12:30:13;;;;;;;19.23;3.42;;;11.40;99.90;;;;;;4956794;28;20038;-73
2023/12/28 12:32:42;;;;;;;19.90;2.60;;;11.40;99.90;;;;;;4974164;28;20042;-74
2023/12/28 12:35:14;;;;;;;16.33;2.67;;;11.40;99.90;;;;;;4971963;28;20050;-73
2023/12/28 12:37:40;;;;;;;27.83;3.57;;;11.50;99.90;;;;;;4955999;28;20567;-74
2023/12/28 12:40:08;;;;;;;17.02;3.10;;;11.50;99.90;;;;;;4977759;28;20030;-74
2023/12/28 12:42:34;;;;;;;15.25;2.05;;;11.50;99.90;;;;;;4975056;28;20426;-73
2023/12/28 12:45:01;;;;;;;25.15;3.72;;;11.50;99.90;;;;;;4974705;28;20068;-71
2023/12/28 12:47:33;;;;;;;15.60;2.22;;;11.50;99.90;;;;;;4972379;28;20042;-72